Metar z połowy godziny Komunikat METAR ze strony awiacja.imgw.pl Metar G00 EPML METAR EPML 241130Z AUTO 16004KT 110V200 9000 NCD M03/M09 Q1036=